Time;durP1;ratioP1;P1;durP2;ratioP2;P2;SDS_P1;SDS_P2;PMS_P1;PMS_P2;Temp;Humidity;BMP_temperature;BMP_pressure;BME280_temperature;BME280_humidity;BME280_pressure;Samples;Min_cycle;Max_cycle;Signal;HPM_P1;HPM_P2
2023/02/03 00:00:53;;;;;;;7.88;3.30;;;;;;;17.31;52.65;102451.38;4872190;29;20052;-87
2023/02/03 00:03:18;;;;;;;8.13;3.13;;;;;;;17.30;52.58;102461.75;4872609;29;20061;-86
2023/02/03 00:05:45;;;;;;;7.22;3.70;;;;;;;17.28;52.56;102460.00;4865181;29;20089;-87
2023/02/03 00:08:12;;;;;;;7.32;3.13;;;;;;;17.30;52.66;102464.34;4897019;29;20472;-88
2023/02/03 00:10:38;;;;;;;6.70;2.80;;;;;;;17.32;52.70;102473.94;4853180;29;20068;-87
2023/02/03 00:13:06;;;;;;;6.57;3.13;;;;;;;17.29;52.65;102471.28;4869717;29;20047;-88
2023/02/03 00:15:31;;;;;;;6.10;2.97;;;;;;;17.31;52.29;102477.41;4868397;29;20037;-89
2023/02/03 00:20:58;;;;;;;6.03;3.15;;;;;;;17.30;52.51;102479.97;4981566;23;20405;-86
2023/02/03 00:23:24;;;;;;;6.00;2.80;;;;;;;17.30;52.62;102488.66;4863050;29;20044;-88
2023/02/03 00:29:13;;;;;;;5.70;2.97;;;;;;;17.31;52.59;102508.63;4879717;29;20179;-87
2023/02/03 00:31:59;;;;;;;7.25;3.40;;;;;;;17.30;52.40;102498.19;4862424;29;20041;-86
2023/02/03 00:34:46;;;;;;;7.88;2.92;;;;;;;17.29;52.47;102497.31;4862613;29;20053;-87
2023/02/03 00:43:56;;;;;;;6.55;2.88;;;;;;;17.28;52.49;102478.19;4881406;29;20049;-88
2023/02/03 00:46:31;;;;;;;5.60;2.78;;;;;;;17.27;52.50;102481.66;4862837;29;20034;-87
2023/02/03 00:48:57;;;;;;;6.30;3.03;;;;;;;17.26;52.26;102474.69;4860437;29;20508;-88
2023/02/03 00:51:22;;;;;;;6.82;2.85;;;;;;;17.28;52.33;102464.31;4858795;29;20042;-87
2023/02/03 00:53:49;;;;;;;6.07;2.78;;;;;;;17.26;52.44;102460.81;4844922;29;20083;-87
2023/02/03 00:56:14;;;;;;;7.10;2.60;;;;;;;17.27;52.40;102463.47;4862435;29;20030;-87
2023/02/03 01:08:31;;;;;;;6.13;2.90;;;;;;;17.27;52.21;102454.78;5107231;23;20061;-87
2023/02/03 01:10:57;;;;;;;4.90;2.30;;;;;;;17.26;52.49;102453.88;4869214;29;20037;-88
2023/02/03 01:16:07;;;;;;;;;;;;;;;17.25;52.41;102449.53;4899852;24;20065;-89
2023/02/03 01:18:32;;;;;;;5.03;2.28;;;;;;;17.25;52.33;102449.53;4872348;29;20287;-86
2023/02/03 01:21:03;;;;;;;4.43;2.08;;;;;;;17.24;52.14;102423.50;4876981;29;20052;-86
2023/02/03 01:23:28;;;;;;;4.18;2.28;;;;;;;17.25;52.19;102433.06;4861686;29;20061;-87
2023/02/03 01:25:53;;;;;;;6.10;2.90;;;;;;;17.26;52.49;102429.59;4877787;29;20038;-86
2023/02/03 01:28:19;;;;;;;5.05;2.58;;;;;;;17.24;52.32;102426.97;4878219;29;20117;-86
2023/02/03 01:30:45;;;;;;;4.97;2.25;;;;;;;17.22;52.26;102435.59;4878873;29;20047;-87
2023/02/03 01:33:10;;;;;;;5.53;2.42;;;;;;;17.24;52.09;102445.16;4864008;29;20037;-86
2023/02/03 01:38:21;;;;;;;4.80;2.60;;;;;;;17.24;52.07;102445.16;5102806;23;20042;-86
2023/02/03 01:43:35;;;;;;;3.80;2.00;;;;;;;17.21;52.31;102433.84;5263566;23;20061;-87
2023/02/03 01:46:06;;;;;;;4.90;2.55;;;;;;;17.21;52.17;102426.06;4887678;29;20102;-85
2023/02/03 01:57:18;;;;;;;5.63;2.38;;;;;;;17.20;52.30;102414.78;5052799;23;20420;-87
2023/02/03 01:59:45;;;;;;;3.90;2.00;;;;;;;17.20;52.12;102408.66;4882990;29;20044;-86
2023/02/03 02:02:11;;;;;;;5.57;2.40;;;;;;;17.22;52.07;102418.28;4849740;29;20049;-86
2023/02/03 02:05:13;;;;;;;4.95;2.17;;;;;;;17.22;51.99;102428.69;4851439;29;20519;-87
2023/02/03 02:07:40;;;;;;;4.32;2.00;;;;;;;17.20;52.16;102430.38;4851827;29;20053;-86
2023/02/03 02:10:06;;;;;;;3.75;2.30;;;;;;;17.21;52.13;102437.31;4866811;29;20067;-86
2023/02/03 02:12:32;;;;;;;4.00;2.20;;;;;;;17.19;52.01;102435.56;4852799;29;20045;-86
2023/02/03 02:24:03;;;;;;;6.75;2.53;;;;;;;17.20;51.96;102421.69;5224680;23;20113;-86
2023/02/03 02:30:06;;;;;;;4.43;2.03;;;;;;;17.18;51.97;102412.97;5262718;23;20049;-86
2023/02/03 02:32:43;;;;;;;3.95;1.77;;;;;;;17.20;52.11;102406.97;4843814;29;20042;-86
2023/02/03 02:38:21;;;;;;;5.43;2.28;;;;;;;17.18;52.14;102413.88;5090035;23;20175;-86
2023/02/03 02:41:03;;;;;;;4.72;2.22;;;;;;;17.19;52.04;102405.19;4886756;29;20029;-85
2023/02/03 02:46:52;;;;;;;4.70;1.90;;;;;;;17.18;52.12;102403.47;4865192;29;20040;-88
2023/02/03 02:49:31;;;;;;;4.82;2.10;;;;;;;17.16;52.17;102397.34;4850728;29;20034;-86
2023/02/03 02:52:01;;;;;;;3.58;1.83;;;;;;;17.17;52.19;102380.00;4850690;29;20030;-86
2023/02/03 02:54:30;;;;;;;6.15;1.98;;;;;;;17.18;52.13;102402.56;4850661;29;20018;-85
2023/02/03 02:56:59;;;;;;;4.85;1.90;;;;;;;17.17;52.05;102400.81;4851286;29;20045;-88
2023/02/03 02:59:25;;;;;;;4.68;1.90;;;;;;;17.18;52.06;102406.06;4851419;29;20071;-86
2023/02/03 03:01:50;;;;;;;3.67;1.83;;;;;;;17.16;51.83;102402.56;4851116;29;20042;-86
2023/02/03 03:04:24;;;;;;;5.07;1.90;;;;;;;17.16;52.02;102392.16;4835604;29;20065;-87
2023/02/03 03:10:09;;;;;;;6.30;2.10;;;;;;;17.18;51.97;102393.06;5079596;23;20068;-83
2023/02/03 03:12:38;;;;;;;3.88;1.73;;;;;;;17.16;52.23;102407.75;4871119;29;20033;-84
2023/02/03 03:15:11;;;;;;;3.90;1.70;;;;;;;17.18;51.90;102410.38;4869448;29;20037;-83
2023/02/03 03:17:41;;;;;;;4.80;1.85;;;;;;;17.18;51.77;102399.97;4885664;29;20400;-83
2023/02/03 03:20:16;;;;;;;4.72;1.90;;;;;;;17.17;52.04;102404.28;4868196;29;20033;-84
2023/02/03 03:22:48;;;;;;;5.50;1.80;;;;;;;17.16;51.60;102401.66;4869148;29;20481;-83
2023/02/03 03:25:30;;;;;;;5.22;2.03;;;;;;;17.14;52.03;102399.06;4871794;29;20037;-83
2023/02/03 03:28:01;;;;;;;3.97;1.95;;;;;;;17.15;51.95;102412.94;4870309;29;20104;-83
2023/02/03 03:30:47;;;;;;;4.07;1.77;;;;;;;17.15;52.00;102392.13;4871794;29;20039;-83
2023/02/03 03:33:12;;;;;;;4.32;2.00;;;;;;;17.13;51.89;102384.28;4887577;29;20065;-84
2023/02/03 03:36:34;;;;;;;5.07;1.80;;;;;;;17.14;51.86;102382.59;4871194;29;20057;-84
2023/02/03 03:46:10;;;;;;;4.45;1.98;;;;;;;17.15;51.84;102400.78;4890932;29;20039;-83
2023/02/03 03:48:46;;;;;;;5.32;1.92;;;;;;;17.14;51.98;102419.88;4890583;29;20044;-83
2023/02/03 03:51:18;;;;;;;4.60;2.10;;;;;;;17.13;52.02;102406.81;4869485;29;20117;-83
2023/02/03 03:53:47;;;;;;;4.50;1.88;;;;;;;17.14;51.88;102406.00;4867888;29;20033;-83
2023/02/03 03:56:19;;;;;;;2.65;1.55;;;;;;;17.14;52.05;102401.66;4867978;29;20381;-84
2023/02/03 03:58:48;;;;;;;3.83;1.70;;;;;;;17.14;51.87;102399.06;4867725;29;20047;-83
2023/02/03 04:01:15;;;;;;;6.45;1.80;;;;;;;17.14;52.00;102403.38;4867504;29;20396;-83
2023/02/03 04:03:51;;;;;;;3.65;1.70;;;;;;;17.14;51.91;102406.00;4884310;29;20489;-83
2023/02/03 04:06:17;;;;;;;4.32;1.80;;;;;;;17.14;51.81;102416.41;4884675;29;20044;-83
2023/02/03 04:08:42;;;;;;;4.68;1.80;;;;;;;17.14;51.77;102419.88;4837302;29;20496;-83
2023/02/03 04:11:08;;;;;;;4.07;1.73;;;;;;;17.13;51.76;102422.44;4851648;29;20041;-85
2023/02/03 04:13:33;;;;;;;3.20;1.42;;;;;;;17.13;52.08;102422.44;4852526;29;20492;-82
2023/02/03 04:15:58;;;;;;;4.07;1.90;;;;;;;17.12;51.86;102412.88;4867826;29;20045;-84
2023/02/03 04:18:24;;;;;;;4.13;1.60;;;;;;;17.13;51.86;102412.03;4853559;29;20037;-82
2023/02/03 04:20:49;;;;;;;3.85;1.50;;;;;;;17.12;51.80;102423.28;4853109;29;20037;-84
2023/02/03 04:23:15;;;;;;;4.22;1.48;;;;;;;17.10;51.96;102428.47;4867782;29;20044;-83
2023/02/03 04:25:40;;;;;;;4.90;1.73;;;;;;;17.11;51.90;102425.00;4867623;29;20033;-83
2023/02/03 04:28:06;;;;;;;3.80;1.60;;;;;;;17.12;51.75;102428.50;4868627;29;20572;-83
2023/02/03 04:30:31;;;;;;;3.67;1.50;;;;;;;17.12;52.06;102434.56;4852981;29;20112;-83
2023/02/03 04:32:57;;;;;;;3.83;1.75;;;;;;;17.13;51.66;102433.69;4868736;29;20051;-82
2023/02/03 04:35:24;;;;;;;5.45;1.73;;;;;;;17.14;51.97;102424.19;4852998;29;20044;-82
2023/02/03 04:37:49;;;;;;;3.83;1.80;;;;;;;17.15;52.09;102438.94;4884433;29;20128;-83
2023/02/03 04:40:15;;;;;;;4.55;1.83;;;;;;;17.15;52.03;102423.34;4838318;29;20072;-84
2023/02/03 04:42:41;;;;;;;3.28;1.55;;;;;;;17.16;51.89;102423.38;4867700;29;20395;-83
2023/02/03 04:45:09;;;;;;;3.50;1.50;;;;;;;17.15;51.75;102407.72;4853114;29;20029;-83
2023/02/03 04:47:35;;;;;;;3.50;1.52;;;;;;;17.14;51.99;102412.06;4868325;29;20032;-83
2023/02/03 04:50:01;;;;;;;2.72;1.40;;;;;;;17.17;51.82;102403.44;4885080;29;20033;-83
2023/02/03 04:52:26;;;;;;;4.03;1.70;;;;;;;17.16;52.14;102401.66;4861277;29;20037;-83
2023/02/03 04:54:52;;;;;;;5.45;1.70;;;;;;;17.16;51.80;102401.66;4882466;29;20104;-84
2023/02/03 04:57:17;;;;;;;4.18;1.40;;;;;;;17.18;51.98;102399.97;4873905;29;20070;-84
2023/02/03 04:59:42;;;;;;;2.38;1.30;;;;;;;17.17;51.93;102399.09;4870497;29;20045;-83
2023/02/03 05:02:08;;;;;;;4.45;1.60;;;;;;;17.17;51.93;102409.50;4847775;29;20037;-81
2023/02/03 05:04:33;;;;;;;6.00;1.50;;;;;;;17.19;51.93;102412.13;4868014;29;20070;-83
2023/02/03 05:06:59;;;;;;;3.38;1.60;;;;;;;17.20;51.92;102413.88;4879442;29;20045;-84
2023/02/03 05:09:27;;;;;;;2.88;1.33;;;;;;;17.17;51.78;102419.91;4861615;29;20056;-84
2023/02/03 05:11:52;;;;;;;2.83;1.30;;;;;;;17.18;51.59;102416.47;4872509;29;20511;-83
2023/02/03 05:14:18;;;;;;;3.10;1.33;;;;;;;17.20;51.94;102419.06;4888575;29;20040;-83
2023/02/03 05:16:44;;;;;;;4.18;1.58;;;;;;;17.17;52.03;102408.63;4856451;29;20044;-84
2023/02/03 05:19:09;;;;;;;3.15;1.45;;;;;;;17.20;51.93;102414.78;4888003;29;20044;-83
2023/02/03 05:21:35;;;;;;;3.50;1.42;;;;;;;17.19;51.85;102410.41;4841107;29;20077;-83
2023/02/03 05:24:02;;;;;;;3.45;1.40;;;;;;;17.20;51.84;102408.66;4855088;29;20033;-83
2023/02/03 05:26:27;;;;;;;3.58;1.48;;;;;;;17.18;51.83;102411.28;4870243;29;20165;-83
2023/02/03 05:28:52;;;;;;;3.13;1.30;;;;;;;17.20;51.99;102421.69;4870327;29;20506;-82
2023/02/03 05:31:18;;;;;;;2.97;1.40;;;;;;;17.20;51.84;102425.19;4870578;29;20565;-83
2023/02/03 05:33:43;;;;;;;2.67;1.30;;;;;;;17.19;52.02;102413.00;4870340;29;20131;-84
2023/02/03 05:36:09;;;;;;;2.20;1.15;;;;;;;17.19;52.00;102420.81;4870227;29;20392;-83
2023/02/03 05:38:34;;;;;;;4.03;1.50;;;;;;;17.20;51.92;102430.38;4886899;29;20064;-83
2023/02/03 05:43:43;;;;;;;3.80;1.60;;;;;;;17.20;52.17;102434.69;4874710;29;20117;-83
2023/02/03 05:46:09;;;;;;;2.72;1.10;;;;;;;17.21;51.84;102428.66;4874463;29;20033;-83
2023/02/03 05:48:35;;;;;;;2.45;1.30;;;;;;;17.21;52.11;102420.84;4860404;29;20133;-82
2023/02/03 05:51:01;;;;;;;3.90;1.50;;;;;;;17.19;52.07;102412.13;4872203;29;20045;-83
2023/02/03 05:53:26;;;;;;;3.38;1.60;;;;;;;17.20;51.89;102409.56;4838799;29;20041;-83
2023/02/03 05:55:52;;;;;;;3.15;1.40;;;;;;;17.20;52.25;102409.56;4853548;29;20416;-84
2023/02/03 05:58:18;;;;;;;3.03;1.40;;;;;;;17.21;52.11;102415.66;4886423;29;20092;-84
2023/02/03 06:00:44;;;;;;;2.47;1.15;;;;;;;17.21;52.32;102420.84;4853047;29;20515;-84
2023/02/03 06:03:09;;;;;;;3.45;1.48;;;;;;;17.21;52.30;102418.25;4885060;29;20033;-83
2023/02/03 06:05:39;;;;;;;4.13;1.70;;;;;;;17.27;52.77;102429.63;4857050;29;20041;-85
2023/02/03 06:08:06;;;;;;;3.80;1.80;;;;;;;17.32;52.40;102421.91;4858942;29;20132;-86
2023/02/03 06:10:33;;;;;;;4.03;1.60;;;;;;;17.35;52.18;102424.53;4838114;29;20049;-86
2023/02/03 06:12:59;;;;;;;4.85;1.70;;;;;;;17.36;52.36;102431.50;4853036;29;20119;-82
2023/02/03 06:15:24;;;;;;;4.78;1.90;;;;;;;17.39;52.21;102430.69;4870629;29;20132;-91
2023/02/03 06:17:50;;;;;;;5.93;2.00;;;;;;;17.40;52.37;102430.72;4844646;29;20109;-84
2023/02/03 06:20:18;;;;;;;5.53;1.70;;;;;;;17.38;52.40;102416.81;4858855;29;20579;-90
2023/02/03 06:22:44;;;;;;;5.63;1.85;;;;;;;17.40;52.34;102428.13;4860150;29;20069;-86
2023/02/03 06:25:10;;;;;;;5.85;1.73;;;;;;;17.40;52.63;102435.06;4855364;29;20036;-85
2023/02/03 06:27:36;;;;;;;4.30;1.63;;;;;;;17.40;52.64;102440.25;4870564;29;20037;-86
2023/02/03 06:30:03;;;;;;;3.90;1.42;;;;;;;17.39;52.52;102441.97;4870984;29;20044;-85
2023/02/03 06:32:28;;;;;;;3.47;1.60;;;;;;;17.38;52.67;102435.03;4868862;29;20411;-84
2023/02/03 06:34:53;;;;;;;3.88;1.65;;;;;;;17.40;52.75;102435.91;4838288;29;20037;-85
2023/02/03 06:37:19;;;;;;;4.32;1.60;;;;;;;17.39;52.46;102444.56;4856307;29;20395;-86
2023/02/03 06:39:44;;;;;;;4.38;1.45;;;;;;;17.38;52.71;102441.97;4862180;29;20037;-86
2023/02/03 06:42:10;;;;;;;3.83;1.52;;;;;;;17.38;52.65;102442.81;4874747;29;20044;-84
2023/02/03 06:44:35;;;;;;;4.28;1.58;;;;;;;17.39;52.90;102460.19;4839928;29;20045;-82
2023/02/03 06:47:01;;;;;;;3.47;1.48;;;;;;;17.43;52.72;102459.38;4865480;29;20045;-81
2023/02/03 06:49:28;;;;;;;7.82;1.63;;;;;;;17.48;52.63;102469.88;4865739;29;20041;-82
2023/02/03 06:51:53;;;;;;;8.02;3.40;;;;;;;17.49;52.84;102461.22;4882319;29;20037;-82
2023/02/03 06:54:19;;;;;;;18.95;4.55;;;;;;;17.57;52.79;102472.66;4866413;29;20049;-81
2023/02/03 06:56:45;;;;;;;7.03;3.22;;;;;;;17.59;52.71;102480.47;4866458;29;20039;-83
2023/02/03 06:59:40;;;;;;;8.25;2.90;;;;;;;17.58;52.81;102478.72;4868111;29;20052;-84
2023/02/03 07:02:06;;;;;;;9.75;2.85;;;;;;;17.56;53.04;102477.81;4855326;29;20041;-86
2023/02/03 07:04:31;;;;;;;6.95;2.70;;;;;;;17.53;52.50;102465.63;4836308;29;20159;-83
2023/02/03 07:06:56;;;;;;;7.93;2.58;;;;;;;17.54;52.94;102462.16;4851005;29;20059;-82
2023/02/03 07:09:22;;;;;;;6.78;2.70;;;;;;;17.54;53.04;102464.78;4866281;29;20143;-82
2023/02/03 07:11:47;;;;;;;8.05;2.60;;;;;;;17.55;52.96;102466.53;4851549;29;20065;-82
2023/02/03 07:14:13;;;;;;;6.40;2.35;;;;;;;17.54;52.86;102480.38;4883532;29;20178;-84
2023/02/03 07:16:38;;;;;;;10.35;2.33;;;;;;;17.54;52.79;102471.72;4866731;29;20045;-84
2023/02/03 07:19:04;;;;;;;6.60;2.30;;;;;;;17.55;52.68;102473.44;4878742;29;20041;-91
2023/02/03 07:21:30;;;;;;;13.30;2.33;;;;;;;17.54;52.56;102461.28;4879176;29;20044;-89
2023/02/03 07:23:55;;;;;;;5.63;2.13;;;;;;;17.55;52.69;102469.13;4876972;29;20061;-90
2023/02/03 07:26:21;;;;;;;6.82;2.10;;;;;;;17.53;52.79;102459.53;4869441;29;20033;-90
2023/02/03 07:28:47;;;;;;;6.22;2.20;;;;;;;17.53;52.76;102469.94;4854620;29;20039;-90
2023/02/03 07:31:14;;;;;;;4.30;2.13;;;;;;;17.53;52.61;102460.44;4874435;29;20061;-90
2023/02/03 07:33:39;;;;;;;4.60;1.95;;;;;;;17.54;52.82;102464.78;4878869;29;20036;-90
2023/02/03 07:36:06;;;;;;;4.60;2.05;;;;;;;17.54;52.81;102467.38;4846575;29;20037;-90
2023/02/03 07:38:37;;;;;;;5.78;2.20;;;;;;;17.54;52.58;102469.09;4869418;29;20075;-90
2023/02/03 07:41:04;;;;;;;4.22;1.75;;;;;;;17.54;52.56;102474.31;4869314;29;20085;-89
2023/02/03 07:43:29;;;;;;;5.20;1.95;;;;;;;17.56;52.51;102478.69;4852702;29;20537;-89
2023/02/03 07:45:55;;;;;;;4.90;1.80;;;;;;;17.55;52.47;102483.84;4837369;29;20074;-91
2023/02/03 07:48:20;;;;;;;5.72;2.00;;;;;;;17.54;52.45;102487.31;4869075;29;20045;-90
2023/02/03 07:50:49;;;;;;;4.38;1.90;;;;;;;17.56;52.26;102489.09;4852913;29;20037;-90
2023/02/03 07:53:15;;;;;;;4.85;1.90;;;;;;;17.57;52.34;102489.97;4851365;29;20048;-83
2023/02/03 07:55:41;;;;;;;4.38;1.85;;;;;;;17.56;52.38;102491.69;4864460;29;20101;-84
2023/02/03 07:58:06;;;;;;;5.13;1.50;;;;;;;17.58;52.32;102489.13;4881144;29;20041;-83
2023/02/03 08:00:32;;;;;;;4.13;1.77;;;;;;;17.56;52.30;102485.63;4848948;29;20047;-83
2023/02/03 08:02:58;;;;;;;6.93;1.75;;;;;;;17.58;52.38;102497.81;4849008;29;20068;-84
2023/02/03 08:05:23;;;;;;;5.45;2.00;;;;;;;17.58;52.01;102504.75;4863929;29;20156;-84
2023/02/03 08:07:48;;;;;;;4.88;1.95;;;;;;;17.58;52.01;102503.03;4833374;29;20044;-83
2023/02/03 08:10:15;;;;;;;3.13;1.75;;;;;;;17.59;52.30;102516.91;4833987;29;20052;-83
2023/02/03 08:12:42;;;;;;;4.45;1.95;;;;;;;17.60;52.11;102542.09;4848992;29;20540;-83
2023/02/03 08:15:09;;;;;;;5.57;2.00;;;;;;;17.58;52.12;102539.47;4849006;29;20516;-83
2023/02/03 08:17:35;;;;;;;3.85;1.60;;;;;;;17.60;52.31;102531.69;4864050;29;20045;-83
2023/02/03 08:20:00;;;;;;;3.72;1.70;;;;;;;17.60;52.00;102524.75;4864018;29;20117;-83
2023/02/03 08:22:26;;;;;;;3.60;1.95;;;;;;;17.62;52.23;102524.78;4864561;29;20437;-83
2023/02/03 08:24:52;;;;;;;4.00;1.63;;;;;;;17.61;52.04;102534.28;4865231;29;20074;-89
2023/02/03 08:27:21;;;;;;;3.42;1.42;;;;;;;17.64;52.23;102533.50;4853523;29;20488;-90
2023/02/03 08:29:46;;;;;;;4.05;1.70;;;;;;;17.63;52.14;102529.13;4851292;29;20043;-90
2023/02/03 08:32:17;;;;;;;3.42;1.63;;;;;;;17.64;52.20;102520.47;4851881;29;20033;-84
2023/02/03 08:34:43;;;;;;;3.83;1.73;;;;;;;17.64;52.18;102526.56;4864416;29;20044;-84
2023/02/03 08:37:10;;;;;;;3.03;1.65;;;;;;;17.65;52.16;102538.72;4864739;29;20032;-84
2023/02/03 08:39:36;;;;;;;3.45;1.45;;;;;;;17.66;51.88;102550.03;4881221;29;20072;-84
2023/02/03 08:42:02;;;;;;;3.13;1.48;;;;;;;17.65;51.83;102537.84;4863763;29;20185;-82
2023/02/03 08:44:29;;;;;;;3.95;1.67;;;;;;;17.67;51.89;102536.16;4881915;29;20036;-84
2023/02/03 08:46:54;;;;;;;3.72;1.50;;;;;;;17.66;51.78;102553.50;4864214;29;20131;-84
2023/02/03 08:49:20;;;;;;;3.97;1.63;;;;;;;17.67;51.89;102570.84;4849382;29;20145;-84
2023/02/03 08:51:46;;;;;;;3.17;1.80;;;;;;;17.68;51.93;102570.03;4848725;29;20100;-84
2023/02/03 08:54:12;;;;;;;2.70;1.40;;;;;;;17.69;51.78;102570.91;4863859;29;20395;-85
2023/02/03 08:56:38;;;;;;;4.03;1.55;;;;;;;17.70;51.66;102570.03;4863857;29;20400;-85
2023/02/03 08:59:04;;;;;;;2.90;1.30;;;;;;;17.71;51.69;102568.31;4864573;29;20044;-84
2023/02/03 09:01:29;;;;;;;4.20;1.58;;;;;;;17.70;51.53;102590.84;4880642;29;20092;-84
2023/02/03 09:03:55;;;;;;;3.70;1.70;;;;;;;17.72;51.84;102580.47;4849696;29;20396;-83
2023/02/03 09:06:21;;;;;;;3.60;1.52;;;;;;;17.70;51.62;102570.03;4880844;29;20033;-82
2023/02/03 09:08:47;;;;;;;3.88;1.40;;;;;;;17.71;51.85;102602.19;4864097;29;20092;-82
2023/02/03 09:11:14;;;;;;;3.15;1.38;;;;;;;17.73;51.67;102587.47;4863644;29;20070;-83
2023/02/03 09:13:44;;;;;;;3.58;1.60;;;;;;;17.71;51.48;102583.94;4863770;29;20132;-83
2023/02/03 09:16:18;;;;;;;2.60;1.35;;;;;;;17.74;51.73;102599.63;4881783;29;20079;-89
2023/02/03 09:18:45;;;;;;;3.17;1.48;;;;;;;17.72;51.66;102591.75;4864832;29;20033;-83
2023/02/03 09:21:11;;;;;;;2.35;1.35;;;;;;;17.74;51.79;102584.00;4864181;29;20048;-91
2023/02/03 09:23:37;;;;;;;4.85;1.48;;;;;;;17.73;51.72;102598.75;4850076;29;20037;-89
2023/02/03 09:26:08;;;;;;;3.10;1.40;;;;;;;17.75;51.44;102598.78;4835396;29;20029;-83
2023/02/03 09:28:34;;;;;;;3.42;1.17;;;;;;;17.75;51.57;102599.66;4880178;29;20037;-83
2023/02/03 09:31:08;;;;;;;3.88;1.38;;;;;;;17.75;51.76;102601.38;4848052;29;20140;-85
2023/02/03 09:33:34;;;;;;;2.97;1.48;;;;;;;17.76;51.55;102611.81;4863694;29;20065;-89
2023/02/03 09:36:00;;;;;;;2.13;1.10;;;;;;;17.76;51.47;102610.94;4865680;29;20080;-82
2023/02/03 09:38:26;;;;;;;3.85;1.50;;;;;;;17.77;51.69;102617.88;4880044;29;20089;-82
2023/02/03 09:40:55;;;;;;;3.20;1.40;;;;;;;17.77;51.65;102616.19;4863766;29;20123;-90
2023/02/03 09:43:40;;;;;;;3.38;1.23;;;;;;;17.78;51.49;102630.06;4865200;29;20560;-85
2023/02/03 09:46:12;;;;;;;2.40;1.20;;;;;;;17.77;51.67;102629.19;4864777;29;20033;-83
2023/02/03 09:48:42;;;;;;;2.92;1.30;;;;;;;17.77;51.38;102625.69;4864573;29;20029;-83
2023/02/03 09:51:48;;;;;;;3.08;1.05;;;;;;;17.77;51.32;102626.59;4865151;29;20069;-90
2023/02/03 09:54:38;;;;;;;3.00;1.50;;;;;;;17.78;51.62;102624.84;4823155;29;20044;-89
2023/02/03 09:57:12;;;;;;;2.45;1.30;;;;;;;17.77;51.38;102631.81;4868826;29;20486;-91
2023/02/03 09:59:39;;;;;;;2.75;1.23;;;;;;;17.77;51.55;102634.41;4870955;29;20477;-90
2023/02/03 10:02:30;;;;;;;2.97;1.35;;;;;;;17.78;51.53;102643.97;4862357;29;20104;-89
2023/02/03 10:05:40;;;;;;;2.53;1.00;;;;;;;17.77;51.46;102644.81;4877724;29;20052;-84
2023/02/03 10:08:24;;;;;;;2.58;1.20;;;;;;;17.78;51.37;102649.16;4836821;29;20061;-83
2023/02/03 10:11:10;;;;;;;2.42;1.02;;;;;;;17.78;51.40;102656.13;4870435;29;20514;-83
2023/02/03 10:13:35;;;;;;;2.53;1.17;;;;;;;17.79;51.32;102645.72;4868554;29;20064;-91
2023/02/03 10:16:34;;;;;;;3.05;1.30;;;;;;;17.80;51.47;102649.22;4868349;29;20041;-82
2023/02/03 10:19:05;;;;;;;4.13;1.38;;;;;;;17.79;51.30;102653.53;4872136;29;20044;-84
2023/02/03 10:21:37;;;;;;;2.45;1.20;;;;;;;17.81;51.27;102663.97;4878719;29;20049;-82
2023/02/03 10:24:08;;;;;;;2.38;1.10;;;;;;;17.82;51.29;102652.75;4872698;29;20108;-91
2023/02/03 10:26:34;;;;;;;2.88;1.25;;;;;;;17.83;51.43;102675.31;4868252;29;20032;-82
2023/02/03 10:29:16;;;;;;;3.13;1.30;;;;;;;17.83;51.22;102676.22;4884107;29;20078;-91
2023/02/03 10:31:42;;;;;;;3.55;1.40;;;;;;;17.85;51.15;102686.66;4867988;29;20041;-83
2023/02/03 10:34:11;;;;;;;2.33;1.10;;;;;;;17.85;51.32;102687.53;4868768;29;20044;-90
2023/02/03 10:37:20;;;;;;;2.67;1.17;;;;;;;17.85;51.18;102697.94;4867388;29;20061;-90
2023/02/03 10:39:51;;;;;;;2.47;1.20;;;;;;;17.86;51.34;102688.44;4867271;29;20052;-86
2023/02/03 10:42:18;;;;;;;2.47;1.25;;;;;;;17.85;51.16;102677.09;4865864;29;20033;-82
2023/02/03 10:44:56;;;;;;;2.63;1.08;;;;;;;17.86;51.07;102689.28;4883010;29;20036;-83
2023/02/03 10:47:26;;;;;;;2.60;1.10;;;;;;;17.86;51.23;102681.47;4865976;29;20040;-82
2023/02/03 10:49:55;;;;;;;2.20;1.20;;;;;;;17.86;51.27;102691.03;4865661;29;20044;-90
2023/02/03 10:52:32;;;;;;;2.72;1.20;;;;;;;17.89;51.10;102691.06;4867051;29;20033;-88
2023/02/03 10:55:03;;;;;;;2.65;1.20;;;;;;;17.87;51.32;102700.56;4867155;29;20043;-90
2023/02/03 10:57:29;;;;;;;2.17;0.90;;;;;;;17.88;51.15;102704.97;4866374;29;20111;-82
2023/02/03 11:00:05;;;;;;;2.60;1.10;;;;;;;17.89;50.89;102704.09;4850525;29;20045;-90
2023/02/03 11:02:31;;;;;;;2.58;1.17;;;;;;;17.88;50.92;102699.75;4866765;29;20040;-88
2023/02/03 11:05:18;;;;;;;2.53;1.10;;;;;;;17.89;50.96;102704.97;4836118;29;20543;-83
2023/02/03 11:07:44;;;;;;;2.72;1.00;;;;;;;17.90;51.23;102703.25;4882679;29;20025;-83
2023/02/03 11:10:35;;;;;;;2.47;1.00;;;;;;;17.91;51.06;102701.53;4850417;29;20198;-83
2023/02/03 11:13:10;;;;;;;2.50;1.13;;;;;;;17.89;50.92;102704.97;4867155;29;20072;-85
2023/02/03 11:15:36;;;;;;;2.50;1.10;;;;;;;17.89;51.14;102704.97;4866851;29;20061;-86
2023/02/03 11:18:02;;;;;;;2.33;1.05;;;;;;;17.91;51.11;102712.81;4867524;29;20060;-85
2023/02/03 11:20:28;;;;;;;1.90;1.13;;;;;;;17.91;51.09;102704.13;4852512;29;20051;-84
2023/02/03 11:22:55;;;;;;;2.53;1.15;;;;;;;17.91;50.85;102711.94;4851353;29;20049;-86
2023/02/03 11:25:31;;;;;;;2.33;1.00;;;;;;;17.92;50.94;102717.19;4867403;29;20101;-86
2023/02/03 11:28:04;;;;;;;3.30;1.10;;;;;;;17.90;51.30;102721.50;4866865;29;20125;-85
2023/02/03 11:30:29;;;;;;;3.65;0.98;;;;;;;17.91;51.07;102717.16;4881879;29;20093;-83
2023/02/03 11:32:56;;;;;;;2.42;0.90;;;;;;;17.92;50.87;102724.09;4849976;29;20037;-88
2023/02/03 11:35:36;;;;;;;2.92;1.05;;;;;;;17.91;50.96;102717.16;4851012;29;20083;-89
2023/02/03 11:38:02;;;;;;;1.83;1.00;;;;;;;17.92;50.89;102713.69;4865818;29;20044;-89
2023/02/03 11:40:37;;;;;;;3.17;1.10;;;;;;;17.90;51.00;102705.88;4835633;29;20045;-89
2023/02/03 11:43:29;;;;;;;1.83;0.80;;;;;;;17.91;50.94;102717.16;4850896;29;20509;-84
2023/02/03 11:46:02;;;;;;;2.50;1.02;;;;;;;17.89;50.97;102701.50;4845693;29;20045;-85
2023/02/03 11:48:41;;;;;;;3.90;1.02;;;;;;;17.89;50.90;102720.59;4881108;29;20041;-84
2023/02/03 11:51:24;;;;;;;2.38;1.02;;;;;;;17.91;51.11;102718.03;4881083;29;20040;-82
2023/02/03 11:54:05;;;;;;;3.10;1.10;;;;;;;17.91;50.85;102711.94;4881059;29;20044;-82
2023/02/03 11:56:49;;;;;;;2.40;0.90;;;;;;;17.91;51.12;102719.75;4864667;29;20492;-82
2023/02/03 11:59:34;;;;;;;3.22;1.15;;;;;;;17.90;50.96;102713.69;4864397;29;20064;-83
2023/02/03 12:02:05;;;;;;;4.57;1.23;;;;;;;17.90;51.04;102713.69;4864396;29;20051;-83
2023/02/03 12:04:33;;;;;;;2.63;1.00;;;;;;;17.92;51.04;102729.31;4880830;29;20115;-82
2023/02/03 12:07:41;;;;;;;2.40;1.13;;;;;;;17.91;51.01;102738.00;4864059;29;20044;-82
2023/02/03 12:10:09;;;;;;;2.50;1.10;;;;;;;17.90;50.97;102747.53;4837448;29;20420;-83
2023/02/03 12:12:57;;;;;;;2.92;1.10;;;;;;;17.91;51.13;102753.63;4864049;29;20036;-82
2023/02/03 12:16:09;;;;;;;3.53;1.05;;;;;;;17.92;51.11;102752.75;4863932;29;20033;-83
2023/02/03 12:19:08;;;;;;;2.00;1.00;;;;;;;17.92;50.95;102753.66;4820096;29;20040;-83
2023/02/03 12:21:48;;;;;;;2.10;1.00;;;;;;;17.93;51.05;102741.50;4864525;29;20089;-82
2023/02/03 12:24:35;;;;;;;2.08;0.98;;;;;;;17.93;50.89;102742.38;4880917;29;20092;-82
2023/02/03 12:27:13;;;;;;;1.88;0.80;;;;;;;17.96;50.89;102749.38;4880952;29;20032;-83
2023/02/03 12:29:42;;;;;;;2.40;1.13;;;;;;;17.94;50.91;102748.47;4863982;29;20085;-82
2023/02/03 12:32:26;;;;;;;2.40;1.02;;;;;;;17.95;51.01;102752.84;4880762;29;20115;-82
2023/02/03 12:35:10;;;;;;;3.72;1.00;;;;;;;17.98;50.70;102750.28;4864000;29;20428;-84
2023/02/03 12:37:42;;;;;;;;;;;;;;;18.00;50.84;102766.81;4864252;29;20177;-85
2023/02/03 12:40:19;;;;;;;2.60;0.90;;;;;;;17.99;50.83;102762.47;4863754;29;19915;-84
2023/02/03 12:42:56;;;;;;;2.53;1.05;;;;;;;18.03;50.84;102764.25;4863937;29;20033;-83
2023/02/03 12:45:30;;;;;;;1.90;0.85;;;;;;;18.03;50.76;102764.25;4880544;29;20053;-84
2023/02/03 12:48:02;;;;;;;2.15;0.98;;;;;;;18.03;50.98;102767.75;4863688;29;20041;-83
2023/02/03 12:50:34;;;;;;;1.83;0.97;;;;;;;18.02;50.81;102781.63;4863890;29;20100;-85
2023/02/03 12:53:14;;;;;;;2.08;0.80;;;;;;;18.03;50.93;102775.59;4864427;29;20274;-84